Terminal Aerodrome Forecast
Issued by NWS Spokane, WA

Home | Current Version | Previous Version | Text Only | Print | Product List | Glossary On
Versions: 1 2 3 4 5 6 7 8 9 10 11 12 13 14 15 16 17 18 19 20 21 22 23 24 25 26 27 28 29 30 31 32 33 34 35 36 37 38 39 40
000
FTUS46 KOTX 192323
TAFGEG
TAF
KGEG 192323Z 2000/2024 21014KT P6SM SCT015 BKN080
     FM200200 19005KT P6SM BKN030 BKN150
     FM200600 17006KT P6SM OVC005
     FM201500 13010KT 3SM -RASN BR OVC005
     FM201700 16009KT 2SM -RA BR OVC005=

USA.gov is the U.S. government's official web portal to all federal, state and local government web resources and services.